Flight Track Log - Related Links

Times and Time Zones

All times are in EDT time to prevent confusion due to time zone crossing. See the DAL4888 flight status page for this flight to view local times or setup timezone preferences in your user account.

Time Position Orientation Groundspeed Altitude Reporting Facility
EDT Latitude Longitude Course Direction KTS MPH feet Rate Location/Type
Sat 08:46:54 PM 33.6500 -84.3833 320° Northwest 163 188 2,400  Level Atlanta TRACON
Sat 08:48:00 PM 33.6667 -84.3000 76° East 267 307 4,300 2,191 Climbing Atlanta TRACON
Sat 08:48:49 PM 33.7333 -84.2833 12° North 300 345 6,600 2,311 Climbing Atlanta TRACON
Sat 08:50:41 PM 33.8858 -84.2842 360° North 295 339 10,500 1,919 Climbing Atlanta Center
Sat 08:51:41 PM 33.9819 -84.2844 360° North 319 367 12,100 1,600 Climbing Atlanta Center
Sat 08:52:00 PM 33.8684 -84.2017 320° Northwest  Level FlightAware Approximate
Sat 08:52:41 PM 34.0800 -84.2847 360° North 342 394 13,700  Level Atlanta Center
Sat 08:53:41 PM 34.1822 -84.2850 360° North 350 403 15,300 1,550 Climbing Atlanta Center
Sat 08:54:41 PM 34.2803 -84.2825 North 356 410 16,800 1,300 Climbing Atlanta Center
Sat 08:55:41 PM 34.3806 -84.2553 13° North 356 410 17,900 1,000 Climbing Atlanta Center
Sat 08:56:41 PM 34.4725 -84.1800 34° Northeast 366 421 18,800 950 Climbing Atlanta Center
Sat 08:57:41 PM 34.5664 -84.0992 35° Northeast 397 457 19,800 1,000 Climbing Atlanta Center
Sat 08:58:41 PM 34.6625 -84.0211 34° Northeast 410 472 20,800 1,000 Climbing Atlanta Center
Sat 08:59:41 PM 34.7564 -83.9428 34° Northeast 410 472 21,800 1,000 Climbing Atlanta Center
Sat 09:00:41 PM 34.8647 -83.8489 35° Northeast 417 480 22,800 600 Climbing Atlanta Center
Sat 09:01:41 PM 34.9503 -83.7753 35° Northeast 422 486 23,000 100 Climbing Atlanta Center
Sat 09:02:41 PM 35.0542 -83.6861 35° Northeast 427 491 23,000  Level Atlanta Center
Sat 09:03:41 PM 35.1603 -83.5967 35° Northeast 450 518 23,000  Level Atlanta Center
Sat 09:04:41 PM 35.2686 -83.5019 36° Northeast 463 533 23,000  Level Atlanta Center
Sat 09:05:41 PM 35.3808 -83.4069 35° Northeast 479 551 23,000 -550 Level Atlanta Center
Sat 09:06:41 PM 35.4908 -83.3144 34° Northeast 479 551 21,900 -1,600 Descending Atlanta Center
Sat 09:07:41 PM 35.5944 -83.2189 37° Northeast 473 544 19,800 -2,050 Descending Atlanta Center
Sat 09:08:41 PM 35.6983 -83.1308 35° Northeast 458 527 17,800 -1,900 Descending Atlanta Center
Sat 09:09:41 PM 35.7956 -83.0403 37° Northeast 445 512 16,000 -1,900 Descending Atlanta Center
Sat 09:10:41 PM 35.8739 -82.9342 48° Northeast 426 490 14,000 -2,100 Descending Atlanta Center
Sat 09:11:41 PM 35.9458 -82.8333 49° Northeast 398 458 11,800 -1,500 Descending Atlanta Center
Sat 09:12:41 PM 36.0117 -82.7425 48° Northeast 362 417 11,000 -850 Descending Atlanta Center
Sat 09:13:41 PM 36.0692 -82.6567 50° Northeast 329 379 10,100 -1,250 Descending Atlanta Center
Sat 09:14:41 PM 36.1311 -82.6017 36° Northeast 292 336 8,500 -1,500 Descending Atlanta Center
Sat 09:15:41 PM 36.2039 -82.5822 12° North 263 303 7,100 -1,250 Descending Atlanta Center
Sat 09:16:41 PM 36.2725 -82.5631 13° North 253 291 6,000 -1,250 Descending Atlanta Center
Sat 09:17:41 PM 36.3411 -82.5489 North 248 285 4,600 -1,150 Descending Atlanta Center
Sat 09:18:41 PM 36.3886 -82.5094 34° Northeast 214 246 3,700 -950 Descending Atlanta Center
Sat 09:19:41 PM 36.4236 -82.4675 44° Northeast 179 206 2,700 -900 Descending Atlanta Center
Sat 09:20:41 PM 36.4544 -82.4306 44° Northeast 160 184 1,900 -800 Descending Atlanta Center
Sat 09:22:00 PM 36.4667 -82.4000 47° Northeast  Level FlightAware Approximate

Login

Don't have an account? Register now (free) for customized features, flight alerts, and more!